sensor_id;sensor_type;location;lat;lon;timestamp;P1;durP1;ratioP1;P2;durP2;ratioP2
38312;SDS011;24114;52.260;6.714;2023-08-20T09:45:38;5.67;;;1.80;;
38312;SDS011;24114;52.260;6.714;2023-08-20T09:48:07;3.55;;;1.52;;
38312;SDS011;24114;52.260;6.714;2023-08-20T09:50:37;5.43;;;1.85;;
38312;SDS011;24114;52.260;6.714;2023-08-20T09:53:06;4.40;;;2.03;;
38312;SDS011;24114;52.260;6.714;2023-08-20T09:55:39;5.70;;;1.80;;
38312;SDS011;24114;52.260;6.714;2023-08-20T09:58:08;5.18;;;1.88;;
38312;SDS011;24114;52.260;6.714;2023-08-20T10:00:36;5.63;;;2.08;;
38312;SDS011;24114;52.260;6.714;2023-08-20T10:03:07;4.70;;;1.90;;
38312;SDS011;24114;52.260;6.714;2023-08-20T10:05:35;3.45;;;1.60;;
38312;SDS011;24114;52.260;6.714;2023-08-20T10:08:03;3.80;;;1.75;;
38312;SDS011;24114;52.260;6.714;2023-08-20T10:10:33;4.40;;;1.77;;
38312;SDS011;24114;52.260;6.714;2023-08-20T10:13:01;3.85;;;1.58;;
38312;SDS011;24114;52.260;6.714;2023-08-20T10:15:29;6.05;;;2.00;;
38312;SDS011;24114;52.260;6.714;2023-08-20T10:17:59;4.65;;;1.50;;
38312;SDS011;24114;52.260;6.714;2023-08-20T10:20:28;5.55;;;2.13;;
38312;SDS011;24114;52.260;6.714;2023-08-20T10:22:59;6.35;;;1.80;;
38312;SDS011;24114;52.260;6.714;2023-08-20T10:25:28;3.85;;;1.17;;
38312;SDS011;24114;52.260;6.714;2023-08-20T10:28:10;6.07;;;1.60;;
38312;SDS011;24114;52.260;6.714;2023-08-20T10:30:39;3.92;;;1.15;;
38312;SDS011;24114;52.260;6.714;2023-08-20T10:33:33;2.78;;;0.73;;
38312;SDS011;24114;52.260;6.714;2023-08-20T10:36:08;2.78;;;0.65;;
38312;SDS011;24114;52.260;6.714;2023-08-20T10:38:41;4.25;;;1.00;;
38312;SDS011;24114;52.260;6.714;2023-08-20T10:41:09;3.58;;;0.40;;
38312;SDS011;24114;52.260;6.714;2023-08-20T10:43:37;2.85;;;0.35;;
38312;SDS011;24114;52.260;6.714;2023-08-20T10:46:06;2.80;;;0.40;;
38312;SDS011;24114;52.260;6.714;2023-08-20T10:48:38;3.60;;;0.60;;
38312;SDS011;24114;52.260;6.714;2023-08-20T10:51:10;2.58;;;0.65;;
38312;SDS011;24114;52.260;6.714;2023-08-20T10:53:39;4.22;;;0.47;;
38312;SDS011;24114;52.260;6.714;2023-08-20T10:56:11;4.03;;;0.80;;
38312;SDS011;24114;52.260;6.714;2023-08-20T10:58:40;1.90;;;0.40;;
38312;SDS011;24114;52.260;6.714;2023-08-20T11:01:13;2.53;;;0.45;;
38312;SDS011;24114;52.260;6.714;2023-08-20T11:03:43;3.28;;;0.32;;
38312;SDS011;24114;52.260;6.714;2023-08-20T11:06:12;2.58;;;0.28;;
38312;SDS011;24114;52.260;6.714;2023-08-20T11:08:40;1.25;;;0.20;;
38312;SDS011;24114;52.260;6.714;2023-08-20T11:11:09;2.05;;;0.35;;
38312;SDS011;24114;52.260;6.714;2023-08-20T11:13:37;2.38;;;0.60;;
38312;SDS011;24114;52.260;6.714;2023-08-20T11:16:05;1.55;;;0.20;;
38312;SDS011;24114;52.260;6.714;2023-08-20T11:18:34;2.00;;;0.53;;
38312;SDS011;24114;52.260;6.714;2023-08-20T11:21:03;2.10;;;0.30;;
38312;SDS011;24114;52.260;6.714;2023-08-20T11:23:31;2.63;;;0.30;;
38312;SDS011;24114;52.260;6.714;2023-08-20T11:25:59;2.67;;;0.40;;
38312;SDS011;24114;52.260;6.714;2023-08-20T11:28:28;1.13;;;0.15;;
38312;SDS011;24114;52.260;6.714;2023-08-20T11:30:56;2.40;;;0.60;;
38312;SDS011;24114;52.260;6.714;2023-08-20T11:33:24;1.50;;;0.40;;
38312;SDS011;24114;52.260;6.714;2023-08-20T11:35:53;2.20;;;0.20;;
38312;SDS011;24114;52.260;6.714;2023-08-20T11:38:23;0.90;;;0.10;;
38312;SDS011;24114;52.260;6.714;2023-08-20T11:40:52;1.55;;;0.30;;
38312;SDS011;24114;52.260;6.714;2023-08-20T11:44:50;1.70;;;0.28;;
38312;SDS011;24114;52.260;6.714;2023-08-20T11:47:18;2.13;;;0.10;;
38312;SDS011;24114;52.260;6.714;2023-08-20T11:49:46;2.75;;;0.20;;
38312;SDS011;24114;52.260;6.714;2023-08-20T11:52:13;1.35;;;0.20;;
38312;SDS011;24114;52.260;6.714;2023-08-20T11:54:43;0.60;;;0.30;;
38312;SDS011;24114;52.260;6.714;2023-08-20T11:57:11;1.40;;;0.20;;
38312;SDS011;24114;52.260;6.714;2023-08-20T11:59:39;1.50;;;0.10;;
38312;SDS011;24114;52.260;6.714;2023-08-20T12:02:08;1.10;;;0.20;;
38312;SDS011;24114;52.260;6.714;2023-08-20T12:04:36;0.65;;;0.00;;
38312;SDS011;24114;52.260;6.714;2023-08-20T12:07:04;1.38;;;0.25;;
38312;SDS011;24114;52.260;6.714;2023-08-20T12:09:34;1.55;;;0.10;;
38312;SDS011;24114;52.260;6.714;2023-08-20T12:12:04;0.45;;;0.10;;
38312;SDS011;24114;52.260;6.714;2023-08-20T12:14:33;0.73;;;0.00;;
38312;SDS011;24114;52.260;6.714;2023-08-20T12:17:01;1.77;;;0.85;;
38312;SDS011;24114;52.260;6.714;2023-08-20T12:19:31;1.23;;;0.38;;
38312;SDS011;24114;52.260;6.714;2023-08-20T12:21:59;1.38;;;0.20;;
38312;SDS011;24114;52.260;6.714;2023-08-20T12:24:26;1.45;;;0.10;;
38312;SDS011;24114;52.260;6.714;2023-08-20T12:26:54;1.80;;;0.10;;
38312;SDS011;24114;52.260;6.714;2023-08-20T12:29:23;1.35;;;0.10;;
38312;SDS011;24114;52.260;6.714;2023-08-20T12:31:51;0.47;;;0.10;;
38312;SDS011;24114;52.260;6.714;2023-08-20T12:34:19;1.40;;;0.00;;
38312;SDS011;24114;52.260;6.714;2023-08-20T12:36:49;1.20;;;0.10;;
38312;SDS011;24114;52.260;6.714;2023-08-20T12:39:18;1.25;;;0.10;;
38312;SDS011;24114;52.260;6.714;2023-08-20T12:41:46;1.33;;;0.00;;
38312;SDS011;24114;52.260;6.714;2023-08-20T12:44:13;1.00;;;0.30;;
38312;SDS011;24114;52.260;6.714;2023-08-20T12:46:41;1.50;;;0.00;;
38312;SDS011;24114;52.260;6.714;2023-08-20T12:49:09;1.55;;;0.10;;
38312;SDS011;24114;52.260;6.714;2023-08-20T12:51:37;0.90;;;0.00;;
38312;SDS011;24114;52.260;6.714;2023-08-20T12:54:06;1.63;;;0.17;;
38312;SDS011;24114;52.260;6.714;2023-08-20T12:56:34;1.10;;;0.20;;
38312;SDS011;24114;52.260;6.714;2023-08-20T12:59:02;0.60;;;0.00;;
38312;SDS011;24114;52.260;6.714;2023-08-20T13:01:30;0.80;;;0.00;;
38312;SDS011;24114;52.260;6.714;2023-08-20T13:03:58;1.90;;;0.10;;
38312;SDS011;24114;52.260;6.714;2023-08-20T13:06:27;5.18;;;0.50;;
38312;SDS011;24114;52.260;6.714;2023-08-20T13:08:55;1.50;;;0.20;;
38312;SDS011;24114;52.260;6.714;2023-08-20T13:11:25;1.25;;;0.30;;
38312;SDS011;24114;52.260;6.714;2023-08-20T13:13:53;2.03;;;0.10;;
38312;SDS011;24114;52.260;6.714;2023-08-20T13:16:21;2.40;;;0.10;;
38312;SDS011;24114;52.260;6.714;2023-08-20T13:18:50;0.70;;;0.00;;
38312;SDS011;24114;52.260;6.714;2023-08-20T13:21:18;1.88;;;0.43;;
38312;SDS011;24114;52.260;6.714;2023-08-20T13:23:47;1.83;;;0.00;;
38312;SDS011;24114;52.260;6.714;2023-08-20T13:26:15;1.08;;;0.10;;
38312;SDS011;24114;52.260;6.714;2023-08-20T13:28:45;1.25;;;0.00;;
38312;SDS011;24114;52.260;6.714;2023-08-20T13:31:13;0.65;;;0.10;;
38312;SDS011;24114;52.260;6.714;2023-08-20T13:33:41;1.20;;;0.20;;
38312;SDS011;24114;52.260;6.714;2023-08-20T13:36:08;6.70;;;0.30;;
38312;SDS011;24114;52.260;6.714;2023-08-20T13:38:36;1.38;;;0.10;;
38312;SDS011;24114;52.260;6.714;2023-08-20T13:41:04;2.83;;;0.10;;
38312;SDS011;24114;52.260;6.714;2023-08-20T13:43:32;1.50;;;0.10;;
38312;SDS011;24114;52.260;6.714;2023-08-20T13:46:01;1.17;;;0.32;;
38312;SDS011;24114;52.260;6.714;2023-08-20T13:48:29;1.30;;;0.25;;
38312;SDS011;24114;52.260;6.714;2023-08-20T13:50:57;1.60;;;0.10;;
38312;SDS011;24114;52.260;6.714;2023-08-20T13:53:25;1.23;;;0.30;;
38312;SDS011;24114;52.260;6.714;2023-08-20T13:57:16;1.33;;;0.00;;
38312;SDS011;24114;52.260;6.714;2023-08-20T13:59:44;2.83;;;0.40;;
38312;SDS011;24114;52.260;6.714;2023-08-20T14:02:12;1.67;;;0.30;;
38312;SDS011;24114;52.260;6.714;2023-08-20T14:04:39;1.33;;;0.20;;
38312;SDS011;24114;52.260;6.714;2023-08-20T14:07:07;1.20;;;0.20;;
38312;SDS011;24114;52.260;6.714;2023-08-20T14:09:35;2.95;;;0.10;;
38312;SDS011;24114;52.260;6.714;2023-08-20T14:12:06;2.10;;;0.10;;
38312;SDS011;24114;52.260;6.714;2023-08-20T14:14:35;1.40;;;0.20;;
38312;SDS011;24114;52.260;6.714;2023-08-20T14:17:03;1.50;;;0.10;;
38312;SDS011;24114;52.260;6.714;2023-08-20T14:19:31;1.00;;;0.10;;
38312;SDS011;24114;52.260;6.714;2023-08-20T14:21:59;2.28;;;0.20;;
38312;SDS011;24114;52.260;6.714;2023-08-20T14:24:27;1.60;;;0.20;;
38312;SDS011;24114;52.260;6.714;2023-08-20T14:26:54;1.25;;;0.20;;
38312;SDS011;24114;52.260;6.714;2023-08-20T14:29:22;2.05;;;0.20;;
38312;SDS011;24114;52.260;6.714;2023-08-20T14:31:51;1.63;;;0.20;;
38312;SDS011;24114;52.260;6.714;2023-08-20T14:34:19;4.05;;;1.33;;
38312;SDS011;24114;52.260;6.714;2023-08-20T14:36:47;1.98;;;0.20;;
38312;SDS011;24114;52.260;6.714;2023-08-20T14:39:15;1.73;;;0.20;;
38312;SDS011;24114;52.260;6.714;2023-08-20T14:41:43;1.60;;;0.20;;
38312;SDS011;24114;52.260;6.714;2023-08-20T14:44:10;2.00;;;0.30;;
38312;SDS011;24114;52.260;6.714;2023-08-20T14:46:38;0.80;;;0.10;;
38312;SDS011;24114;52.260;6.714;2023-08-20T14:49:07;1.50;;;0.10;;
38312;SDS011;24114;52.260;6.714;2023-08-20T14:51:35;0.80;;;0.10;;
38312;SDS011;24114;52.260;6.714;2023-08-20T14:54:03;1.60;;;0.00;;
38312;SDS011;24114;52.260;6.714;2023-08-20T14:56:31;1.58;;;0.10;;
38312;SDS011;24114;52.260;6.714;2023-08-20T14:58:59;1.35;;;0.00;;
38312;SDS011;24114;52.260;6.714;2023-08-20T15:01:27;1.40;;;0.10;;
38312;SDS011;24114;52.260;6.714;2023-08-20T15:03:55;0.77;;;0.10;;
38312;SDS011;24114;52.260;6.714;2023-08-20T15:06:24;2.03;;;0.20;;
38312;SDS011;24114;52.260;6.714;2023-08-20T15:08:53;2.33;;;0.20;;
38312;SDS011;24114;52.260;6.714;2023-08-20T15:11:21;2.25;;;0.20;;
38312;SDS011;24114;52.260;6.714;2023-08-20T15:13:48;1.67;;;0.15;;
38312;SDS011;24114;52.260;6.714;2023-08-20T15:16:18;2.72;;;0.60;;
38312;SDS011;24114;52.260;6.714;2023-08-20T15:18:46;1.77;;;0.10;;
38312;SDS011;24114;52.260;6.714;2023-08-20T15:21:13;1.40;;;0.10;;
38312;SDS011;24114;52.260;6.714;2023-08-20T15:23:43;2.03;;;0.20;;
38312;SDS011;24114;52.260;6.714;2023-08-20T15:26:10;1.60;;;0.30;;
38312;SDS011;24114;52.260;6.714;2023-08-20T15:35:31;2.63;;;0.23;;
38312;SDS011;24114;52.260;6.714;2023-08-20T15:37:59;1.67;;;0.30;;
38312;SDS011;24114;52.260;6.714;2023-08-20T15:40:27;2.57;;;0.40;;
38312;SDS011;24114;52.260;6.714;2023-08-20T15:42:54;1.65;;;0.40;;
38312;SDS011;24114;52.260;6.714;2023-08-20T15:45:23;2.95;;;0.20;;
38312;SDS011;24114;52.260;6.714;2023-08-20T15:47:50;1.92;;;0.10;;
38312;SDS011;24114;52.260;6.714;2023-08-20T15:50:18;0.93;;;0.10;;
38312;SDS011;24114;52.260;6.714;2023-08-20T15:52:48;1.73;;;0.20;;
38312;SDS011;24114;52.260;6.714;2023-08-20T15:55:15;1.73;;;0.10;;
38312;SDS011;24114;52.260;6.714;2023-08-20T15:57:43;1.40;;;0.10;;
38312;SDS011;24114;52.260;6.714;2023-08-20T16:00:11;2.83;;;0.30;;
38312;SDS011;24114;52.260;6.714;2023-08-20T16:02:42;3.10;;;0.20;;
38312;SDS011;24114;52.260;6.714;2023-08-20T16:05:11;1.40;;;0.25;;
38312;SDS011;24114;52.260;6.714;2023-08-20T16:07:39;2.13;;;0.30;;
38312;SDS011;24114;52.260;6.714;2023-08-20T16:10:09;1.70;;;0.30;;
38312;SDS011;24114;52.260;6.714;2023-08-20T16:12:37;1.88;;;0.10;;
38312;SDS011;24114;52.260;6.714;2023-08-20T16:15:05;1.30;;;0.15;;
38312;SDS011;24114;52.260;6.714;2023-08-20T16:17:34;1.77;;;0.20;;
38312;SDS011;24114;52.260;6.714;2023-08-20T16:20:02;2.50;;;0.20;;
38312;SDS011;24114;52.260;6.714;2023-08-20T16:22:30;1.23;;;0.10;;
38312;SDS011;24114;52.260;6.714;2023-08-20T16:24:58;1.45;;;0.17;;
38312;SDS011;24114;52.260;6.714;2023-08-20T16:27:28;2.35;;;0.30;;
38312;SDS011;24114;52.260;6.714;2023-08-20T16:29:56;1.40;;;0.20;;
38312;SDS011;24114;52.260;6.714;2023-08-20T16:32:24;1.13;;;0.20;;
38312;SDS011;24114;52.260;6.714;2023-08-20T16:34:52;2.03;;;0.20;;
38312;SDS011;24114;52.260;6.714;2023-08-20T16:37:19;1.17;;;0.10;;
38312;SDS011;24114;52.260;6.714;2023-08-20T16:39:47;1.90;;;0.10;;
38312;SDS011;24114;52.260;6.714;2023-08-20T16:42:15;2.13;;;0.35;;
38312;SDS011;24114;52.260;6.714;2023-08-20T16:44:44;2.33;;;0.30;;
38312;SDS011;24114;52.260;6.714;2023-08-20T16:47:14;2.28;;;0.30;;
38312;SDS011;24114;52.260;6.714;2023-08-20T16:49:42;1.50;;;0.30;;
38312;SDS011;24114;52.260;6.714;2023-08-20T16:52:10;2.10;;;0.30;;
38312;SDS011;24114;52.260;6.714;2023-08-20T16:54:38;3.17;;;0.50;;
38312;SDS011;24114;52.260;6.714;2023-08-20T16:57:06;2.00;;;0.32;;
38312;SDS011;24114;52.260;6.714;2023-08-20T16:59:34;2.00;;;0.20;;
38312;SDS011;24114;52.260;6.714;2023-08-20T17:02:03;1.95;;;0.20;;
38312;SDS011;24114;52.260;6.714;2023-08-20T17:04:31;2.25;;;0.30;;
38312;SDS011;24114;52.260;6.714;2023-08-20T17:07:06;2.53;;;0.30;;
38312;SDS011;24114;52.260;6.714;2023-08-20T17:09:34;2.10;;;0.30;;
38312;SDS011;24114;52.260;6.714;2023-08-20T17:12:03;2.80;;;0.20;;
38312;SDS011;24114;52.260;6.714;2023-08-20T17:14:31;1.98;;;0.35;;
38312;SDS011;24114;52.260;6.714;2023-08-20T17:17:00;2.53;;;0.30;;
38312;SDS011;24114;52.260;6.714;2023-08-20T17:19:30;1.25;;;0.10;;
38312;SDS011;24114;52.260;6.714;2023-08-20T17:21:57;2.40;;;0.20;;
38312;SDS011;24114;52.260;6.714;2023-08-20T17:24:25;1.92;;;0.20;;
38312;SDS011;24114;52.260;6.714;2023-08-20T17:26:54;1.77;;;0.20;;
38312;SDS011;24114;52.260;6.714;2023-08-20T17:29:21;2.40;;;0.10;;
38312;SDS011;24114;52.260;6.714;2023-08-20T17:31:49;1.67;;;0.10;;
38312;SDS011;24114;52.260;6.714;2023-08-20T17:34:17;1.50;;;0.20;;
38312;SDS011;24114;52.260;6.714;2023-08-20T17:36:46;1.42;;;0.20;;
38312;SDS011;24114;52.260;6.714;2023-08-20T17:39:14;1.07;;;0.10;;
38312;SDS011;24114;52.260;6.714;2023-08-20T17:41:42;3.40;;;0.28;;
38312;SDS011;24114;52.260;6.714;2023-08-20T17:44:42;1.88;;;0.40;;
38312;SDS011;24114;52.260;6.714;2023-08-20T17:47:10;2.85;;;0.20;;
38312;SDS011;24114;52.260;6.714;2023-08-20T17:49:38;2.78;;;0.52;;
38312;SDS011;24114;52.260;6.714;2023-08-20T17:52:05;1.73;;;0.40;;
38312;SDS011;24114;52.260;6.714;2023-08-20T17:54:33;1.65;;;0.30;;
38312;SDS011;24114;52.260;6.714;2023-08-20T17:57:01;1.75;;;0.20;;
38312;SDS011;24114;52.260;6.714;2023-08-20T17:59:30;1.38;;;0.10;;
38312;SDS011;24114;52.260;6.714;2023-08-20T18:01:59;2.20;;;0.40;;
38312;SDS011;24114;52.260;6.714;2023-08-20T18:04:27;2.08;;;0.43;;
38312;SDS011;24114;52.260;6.714;2023-08-20T18:06:54;3.05;;;0.43;;
38312;SDS011;24114;52.260;6.714;2023-08-20T18:09:22;2.53;;;0.70;;
38312;SDS011;24114;52.260;6.714;2023-08-20T18:11:50;2.05;;;0.80;;
38312;SDS011;24114;52.260;6.714;2023-08-20T18:14:18;2.72;;;0.50;;
38312;SDS011;24114;52.260;6.714;2023-08-20T18:16:45;1.98;;;0.45;;
38312;SDS011;24114;52.260;6.714;2023-08-20T18:19:15;2.22;;;0.32;;
38312;SDS011;24114;52.260;6.714;2023-08-20T18:21:43;2.28;;;0.30;;
38312;SDS011;24114;52.260;6.714;2023-08-20T18:24:11;2.45;;;0.40;;
38312;SDS011;24114;52.260;6.714;2023-08-20T18:26:38;1.42;;;0.20;;
38312;SDS011;24114;52.260;6.714;2023-08-20T18:29:06;2.00;;;0.20;;
38312;SDS011;24114;52.260;6.714;2023-08-20T18:31:34;2.63;;;0.30;;
38312;SDS011;24114;52.260;6.714;2023-08-20T18:34:02;1.48;;;0.20;;
38312;SDS011;24114;52.260;6.714;2023-08-20T18:36:32;1.67;;;0.20;;
38312;SDS011;24114;52.260;6.714;2023-08-20T18:38:59;1.80;;;0.20;;
38312;SDS011;24114;52.260;6.714;2023-08-20T18:41:30;2.13;;;0.25;;
38312;SDS011;24114;52.260;6.714;2023-08-20T18:43:58;2.08;;;0.20;;
38312;SDS011;24114;52.260;6.714;2023-08-20T18:46:28;2.85;;;0.20;;
38312;SDS011;24114;52.260;6.714;2023-08-20T18:48:56;5.20;;;0.70;;
38312;SDS011;24114;52.260;6.714;2023-08-20T18:51:24;2.05;;;0.45;;
38312;SDS011;24114;52.260;6.714;2023-08-20T18:53:53;1.10;;;0.10;;
38312;SDS011;24114;52.260;6.714;2023-08-20T18:56:22;1.85;;;0.28;;
38312;SDS011;24114;52.260;6.714;2023-08-20T18:58:50;1.60;;;0.20;;
38312;SDS011;24114;52.260;6.714;2023-08-20T19:01:18;3.17;;;0.70;;
38312;SDS011;24114;52.260;6.714;2023-08-20T19:03:45;1.52;;;0.20;;
38312;SDS011;24114;52.260;6.714;2023-08-20T19:06:13;2.13;;;0.22;;
38312;SDS011;24114;52.260;6.714;2023-08-20T19:08:41;2.35;;;0.30;;
38312;SDS011;24114;52.260;6.714;2023-08-20T19:11:10;3.10;;;0.20;;
38312;SDS011;24114;52.260;6.714;2023-08-20T19:13:38;2.00;;;0.20;;
38312;SDS011;24114;52.260;6.714;2023-08-20T19:16:06;2.80;;;0.30;;
38312;SDS011;24114;52.260;6.714;2023-08-20T19:18:34;2.40;;;0.40;;
38312;SDS011;24114;52.260;6.714;2023-08-20T19:21:02;2.40;;;0.25;;
38312;SDS011;24114;52.260;6.714;2023-08-20T19:23:30;2.55;;;0.30;;
38312;SDS011;24114;52.260;6.714;2023-08-20T19:25:57;1.10;;;0.10;;
38312;SDS011;24114;52.260;6.714;2023-08-20T19:28:26;1.25;;;0.10;;
38312;SDS011;24114;52.260;6.714;2023-08-20T19:30:54;2.53;;;0.30;;
38312;SDS011;24114;52.260;6.714;2023-08-20T19:33:22;1.95;;;0.30;;
38312;SDS011;24114;52.260;6.714;2023-08-20T19:35:50;2.38;;;0.20;;
38312;SDS011;24114;52.260;6.714;2023-08-20T19:38:17;1.50;;;0.10;;
38312;SDS011;24114;52.260;6.714;2023-08-20T19:40:45;2.72;;;0.30;;
38312;SDS011;24114;52.260;6.714;2023-08-20T19:43:14;2.78;;;0.10;;
38312;SDS011;24114;52.260;6.714;2023-08-20T19:45:43;1.58;;;0.20;;
38312;SDS011;24114;52.260;6.714;2023-08-20T19:48:11;1.73;;;0.20;;
38312;SDS011;24114;52.260;6.714;2023-08-20T19:50:39;1.93;;;0.30;;
38312;SDS011;24114;52.260;6.714;2023-08-20T19:53:07;2.53;;;0.68;;
38312;SDS011;24114;52.260;6.714;2023-08-20T19:55:35;2.77;;;0.10;;
38312;SDS011;24114;52.260;6.714;2023-08-20T19:58:03;2.83;;;0.30;;
38312;SDS011;24114;52.260;6.714;2023-08-20T20:00:32;2.47;;;0.28;;
38312;SDS011;24114;52.260;6.714;2023-08-20T20:03:01;3.05;;;0.40;;
38312;SDS011;24114;52.260;6.714;2023-08-20T20:05:29;2.70;;;0.30;;
38312;SDS011;24114;52.260;6.714;2023-08-20T20:07:57;2.65;;;0.50;;
38312;SDS011;24114;52.260;6.714;2023-08-20T20:10:25;2.10;;;0.40;;
38312;SDS011;24114;52.260;6.714;2023-08-20T20:12:53;4.03;;;0.47;;
38312;SDS011;24114;52.260;6.714;2023-08-20T20:15:21;1.95;;;0.20;;
38312;SDS011;24114;52.260;6.714;2023-08-20T20:17:49;2.53;;;0.20;;
38312;SDS011;24114;52.260;6.714;2023-08-20T20:20:20;3.83;;;0.20;;
38312;SDS011;24114;52.260;6.714;2023-08-20T20:22:48;2.35;;;0.40;;
38312;SDS011;24114;52.260;6.714;2023-08-20T20:25:16;2.83;;;0.20;;
38312;SDS011;24114;52.260;6.714;2023-08-20T20:27:43;2.75;;;0.40;;
38312;SDS011;24114;52.260;6.714;2023-08-20T20:30:12;5.35;;;0.70;;
38312;SDS011;24114;52.260;6.714;2023-08-20T20:32:40;2.47;;;0.47;;
38312;SDS011;24114;52.260;6.714;2023-08-20T20:35:08;3.03;;;0.40;;
38312;SDS011;24114;52.260;6.714;2023-08-20T20:37:37;3.35;;;0.55;;
38312;SDS011;24114;52.260;6.714;2023-08-20T20:40:05;2.37;;;0.83;;
38312;SDS011;24114;52.260;6.714;2023-08-20T20:42:35;2.03;;;0.38;;
38312;SDS011;24114;52.260;6.714;2023-08-20T20:45:04;2.53;;;0.30;;
38312;SDS011;24114;52.260;6.714;2023-08-20T20:47:33;1.50;;;0.32;;
38312;SDS011;24114;52.260;6.714;2023-08-20T20:50:01;2.00;;;0.30;;
38312;SDS011;24114;52.260;6.714;2023-08-20T20:52:29;1.90;;;0.30;;
38312;SDS011;24114;52.260;6.714;2023-08-20T20:54:58;2.38;;;0.40;;
38312;SDS011;24114;52.260;6.714;2023-08-20T20:57:26;2.83;;;0.38;;
38312;SDS011;24114;52.260;6.714;2023-08-20T20:59:55;2.05;;;0.40;;
38312;SDS011;24114;52.260;6.714;2023-08-20T21:02:23;2.08;;;0.43;;
38312;SDS011;24114;52.260;6.714;2023-08-20T21:04:51;4.73;;;0.70;;
38312;SDS011;24114;52.260;6.714;2023-08-20T21:07:19;3.28;;;0.63;;
38312;SDS011;24114;52.260;6.714;2023-08-20T21:09:47;2.20;;;0.30;;
38312;SDS011;24114;52.260;6.714;2023-08-20T21:12:16;1.30;;;0.20;;
38312;SDS011;24114;52.260;6.714;2023-08-20T21:14:44;2.88;;;0.50;;
38312;SDS011;24114;52.260;6.714;2023-08-20T21:17:12;3.90;;;0.40;;
38312;SDS011;24114;52.260;6.714;2023-08-20T21:19:40;3.00;;;0.45;;
38312;SDS011;24114;52.260;6.714;2023-08-20T21:22:12;3.60;;;0.50;;
38312;SDS011;24114;52.260;6.714;2023-08-20T21:24:41;1.83;;;0.40;;
38312;SDS011;24114;52.260;6.714;2023-08-20T21:27:08;2.50;;;0.60;;
38312;SDS011;24114;52.260;6.714;2023-08-20T21:29:38;3.95;;;0.60;;
38312;SDS011;24114;52.260;6.714;2023-08-20T21:32:06;3.47;;;0.70;;
38312;SDS011;24114;52.260;6.714;2023-08-20T21:34:34;3.13;;;0.40;;
38312;SDS011;24114;52.260;6.714;2023-08-20T21:37:03;2.73;;;0.50;;
38312;SDS011;24114;52.260;6.714;2023-08-20T21:39:31;4.60;;;0.55;;
38312;SDS011;24114;52.260;6.714;2023-08-20T21:41:59;3.28;;;0.50;;
38312;SDS011;24114;52.260;6.714;2023-08-20T21:44:27;2.42;;;0.22;;
38312;SDS011;24114;52.260;6.714;2023-08-20T21:46:56;2.53;;;0.40;;
38312;SDS011;24114;52.260;6.714;2023-08-20T21:49:23;3.65;;;0.60;;
38312;SDS011;24114;52.260;6.714;2023-08-20T21:51:51;1.55;;;0.40;;
38312;SDS011;24114;52.260;6.714;2023-08-20T21:54:20;2.35;;;0.40;;
38312;SDS011;24114;52.260;6.714;2023-08-20T21:56:48;3.08;;;0.70;;
38312;SDS011;24114;52.260;6.714;2023-08-20T21:59:17;2.65;;;0.40;;
38312;SDS011;24114;52.260;6.714;2023-08-20T22:01:45;2.10;;;0.60;;
38312;SDS011;24114;52.260;6.714;2023-08-20T22:04:14;2.90;;;0.82;;
38312;SDS011;24114;52.260;6.714;2023-08-20T22:06:42;2.75;;;0.60;;
38312;SDS011;24114;52.260;6.714;2023-08-20T22:09:10;2.38;;;0.70;;
38312;SDS011;24114;52.260;6.714;2023-08-20T22:11:38;3.50;;;0.70;;
38312;SDS011;24114;52.260;6.714;2023-08-20T22:14:06;1.38;;;0.28;;
38312;SDS011;24114;52.260;6.714;2023-08-20T22:16:33;2.00;;;0.40;;
38312;SDS011;24114;52.260;6.714;2023-08-20T22:19:01;1.77;;;0.50;;
38312;SDS011;24114;52.260;6.714;2023-08-20T22:21:30;2.35;;;0.52;;
38312;SDS011;24114;52.260;6.714;2023-08-20T22:23:58;4.43;;;0.80;;
38312;SDS011;24114;52.260;6.714;2023-08-20T22:26:26;2.08;;;0.40;;
38312;SDS011;24114;52.260;6.714;2023-08-20T22:28:54;2.40;;;0.50;;
38312;SDS011;24114;52.260;6.714;2023-08-20T22:31:22;3.03;;;0.60;;
38312;SDS011;24114;52.260;6.714;2023-08-20T22:33:50;3.30;;;0.60;;
38312;SDS011;24114;52.260;6.714;2023-08-20T22:36:18;2.17;;;0.60;;
38312;SDS011;24114;52.260;6.714;2023-08-20T22:38:48;2.45;;;0.40;;
38312;SDS011;24114;52.260;6.714;2023-08-20T22:41:15;2.80;;;0.60;;
38312;SDS011;24114;52.260;6.714;2023-08-20T22:43:43;1.75;;;0.55;;
38312;SDS011;24114;52.260;6.714;2023-08-20T22:46:11;2.78;;;0.50;;
38312;SDS011;24114;52.260;6.714;2023-08-20T22:48:38;1.23;;;0.35;;
38312;SDS011;24114;52.260;6.714;2023-08-20T22:51:06;2.00;;;0.35;;
38312;SDS011;24114;52.260;6.714;2023-08-20T22:53:34;2.88;;;0.60;;
38312;SDS011;24114;52.260;6.714;2023-08-20T22:56:03;1.50;;;0.35;;
38312;SDS011;24114;52.260;6.714;2023-08-20T22:58:31;2.40;;;0.80;;
38312;SDS011;24114;52.260;6.714;2023-08-20T23:00:59;2.90;;;0.60;;
38312;SDS011;24114;52.260;6.714;2023-08-20T23:03:27;1.40;;;0.60;;
38312;SDS011;24114;52.260;6.714;2023-08-20T23:05:54;3.58;;;0.90;;
38312;SDS011;24114;52.260;6.714;2023-08-20T23:08:22;1.55;;;0.50;;
38312;SDS011;24114;52.260;6.714;2023-08-20T23:10:50;1.52;;;0.40;;
38312;SDS011;24114;52.260;6.714;2023-08-20T23:13:19;2.20;;;0.80;;
38312;SDS011;24114;52.260;6.714;2023-08-20T23:15:47;4.45;;;0.82;;
38312;SDS011;24114;52.260;6.714;2023-08-20T23:18:15;1.73;;;0.60;;
38312;SDS011;24114;52.260;6.714;2023-08-20T23:20:42;2.85;;;0.75;;
38312;SDS011;24114;52.260;6.714;2023-08-20T23:23:10;2.08;;;0.60;;
38312;SDS011;24114;52.260;6.714;2023-08-20T23:25:38;1.77;;;0.68;;
38312;SDS011;24114;52.260;6.714;2023-08-20T23:28:06;2.15;;;0.60;;
38312;SDS011;24114;52.260;6.714;2023-08-20T23:30:35;2.97;;;0.60;;
38312;SDS011;24114;52.260;6.714;2023-08-20T23:33:03;2.70;;;0.70;;
38312;SDS011;24114;52.260;6.714;2023-08-20T23:35:31;2.80;;;0.60;;
38312;SDS011;24114;52.260;6.714;2023-08-20T23:37:59;2.30;;;0.60;;
38312;SDS011;24114;52.260;6.714;2023-08-20T23:40:27;3.33;;;0.52;;
38312;SDS011;24114;52.260;6.714;2023-08-20T23:42:55;2.22;;;0.50;;
38312;SDS011;24114;52.260;6.714;2023-08-20T23:45:23;2.35;;;0.60;;
38312;SDS011;24114;52.260;6.714;2023-08-20T23:47:52;3.63;;;0.70;;
38312;SDS011;24114;52.260;6.714;2023-08-20T23:50:20;1.40;;;0.32;;
38312;SDS011;24114;52.260;6.714;2023-08-20T23:52:48;1.63;;;0.50;;
38312;SDS011;24114;52.260;6.714;2023-08-20T23:55:16;2.80;;;0.50;;
38312;SDS011;24114;52.260;6.714;2023-08-20T23:57:44;2.17;;;0.52;;
